Time;durP1;ratioP1;P1;durP2;ratioP2;P2;SDS_P1;SDS_P2;PMS_P1;PMS_P2;Temp;Humidity;BMP_temperature;BMP_pressure;BME280_temperature;BME280_humidity;BME280_pressure;Samples;Min_cycle;Max_cycle;Signal;HPM_P1;HPM_P2
2022/05/25 00:02:01;;;;;;;2.15;1.98;;;10.60;99.90;;;;;;5091396;28;20024;-44
2022/05/25 00:04:27;;;;;;;2.22;2.13;;;10.60;99.90;;;;;;5091811;28;20379;-45
2022/05/25 00:06:53;;;;;;;2.67;2.47;;;10.50;99.90;;;;;;5090553;28;20103;-44
2022/05/25 00:09:19;;;;;;;4.75;2.20;;;10.50;99.90;;;;;;5091417;28;20024;-45
2022/05/25 00:11:45;;;;;;;2.80;2.33;;;10.50;99.90;;;;;;5091377;28;20525;-46
2022/05/25 00:14:11;;;;;;;2.80;2.60;;;10.40;99.90;;;;;;5090115;28;20035;-44
2022/05/25 00:16:37;;;;;;;3.70;2.63;;;10.40;99.90;;;;;;5091467;28;20055;-44
2022/05/25 00:21:47;;;;;;;2.78;2.50;;;10.40;99.90;;;;;;5091746;28;20085;-44
2022/05/25 00:24:12;;;;;;;2.60;2.40;;;10.30;99.90;;;;;;5091739;28;20440;-46
2022/05/25 00:26:38;;;;;;;2.40;2.08;;;10.30;99.90;;;;;;5091635;28;20103;-45
2022/05/25 00:29:04;;;;;;;2.55;2.30;;;10.30;99.90;;;;;;5091075;28;20028;-44
2022/05/25 00:31:31;;;;;;;2.83;2.63;;;10.30;99.90;;;;;;5090863;28;20031;-44
2022/05/25 00:33:57;;;;;;;3.90;2.75;;;10.20;99.90;;;;;;5090982;28;20453;-44
2022/05/25 00:36:23;;;;;;;2.83;2.53;;;10.20;99.90;;;;;;5070145;28;20025;-45
2022/05/25 00:38:48;;;;;;;3.50;3.20;;;10.10;99.90;;;;;;5050394;28;20066;-44
2022/05/25 00:41:15;;;;;;;3.47;2.83;;;10.10;99.90;;;;;;5050367;28;20508;-46
2022/05/25 00:43:42;;;;;;;3.80;3.33;;;10.20;99.90;;;;;;5050675;28;20060;-44
2022/05/25 00:46:12;;;;;;;4.28;3.88;;;10.10;99.90;;;;;;5050377;28;20025;-45
2022/05/25 00:48:43;;;;;;;3.53;3.22;;;10.10;99.90;;;;;;5050628;28;20028;-44
2022/05/25 00:51:13;;;;;;;3.65;3.33;;;10.10;99.90;;;;;;5050198;28;20032;-45
2022/05/25 00:54:00;;;;;;;3.72;3.42;;;10.00;99.90;;;;;;5050510;28;20036;-44
2022/05/25 00:56:27;;;;;;;4.03;3.63;;;10.10;99.90;;;;;;5050551;28;20024;-45
2022/05/25 00:58:59;;;;;;;5.32;4.40;;;10.10;99.90;;;;;;5049139;28;20027;-44
2022/05/25 01:01:26;;;;;;;4.25;3.85;;;10.10;99.90;;;;;;5048021;28;20025;-45
2022/05/25 01:03:52;;;;;;;6.68;4.28;;;10.10;99.90;;;;;;5048651;28;20025;-44
2022/05/25 01:06:34;;;;;;;5.03;4.53;;;10.10;99.90;;;;;;5049234;28;20021;-45
2022/05/25 01:09:16;;;;;;;4.63;4.22;;;10.00;99.90;;;;;;5050356;28;20025;-47
2022/05/25 01:12:00;;;;;;;4.78;4.38;;;10.00;99.90;;;;;;5050276;28;20170;-46
2022/05/25 01:14:43;;;;;;;4.55;4.15;;;10.00;99.90;;;;;;5050516;28;20025;-49
2022/05/25 01:17:44;;;;;;;4.53;4.13;;;10.00;99.90;;;;;;5050287;28;20044;-45
2022/05/25 01:20:16;;;;;;;6.95;5.18;;;10.00;99.90;;;;;;5049593;28;20029;-45
2022/05/25 01:23:20;;;;;;;6.32;4.55;;;10.00;99.90;;;;;;5050009;28;20507;-46
2022/05/25 01:25:51;;;;;;;5.32;4.82;;;10.00;99.90;;;;;;5050085;28;20021;-45
2022/05/25 01:28:34;;;;;;;8.40;4.57;;;9.90;99.90;;;;;;5050084;28;20438;-45
2022/05/25 01:31:07;;;;;;;4.85;4.35;;;9.90;99.90;;;;;;5050123;28;20028;-47
2022/05/25 01:33:59;;;;;;;5.32;4.53;;;9.90;99.90;;;;;;5049916;28;20072;-47
2022/05/25 01:36:37;;;;;;;5.43;4.93;;;9.90;99.90;;;;;;5050300;28;20056;-46
2022/05/25 01:39:08;;;;;;;5.35;4.60;;;9.90;99.90;;;;;;5050189;28;20044;-44
2022/05/25 01:41:44;;;;;;;6.07;5.50;;;9.90;99.90;;;;;;5049927;28;20025;-46
2022/05/25 01:44:16;;;;;;;6.65;5.43;;;9.90;99.90;;;;;;5049836;28;20048;-48
2022/05/25 01:46:47;;;;;;;5.68;5.07;;;9.90;99.90;;;;;;5050035;28;20032;-46
2022/05/25 01:49:18;;;;;;;5.35;4.85;;;9.80;99.90;;;;;;5050017;28;20745;-45
2022/05/25 01:52:06;;;;;;;5.80;5.30;;;9.80;99.90;;;;;;5049885;28;20105;-46
2022/05/25 01:54:35;;;;;;;6.22;5.63;;;9.80;99.90;;;;;;5048803;28;20427;-46
2022/05/25 01:57:06;;;;;;;6.65;6.05;;;9.90;99.90;;;;;;5049937;28;20437;-46
2022/05/25 01:59:31;;;;;;;6.93;5.93;;;9.90;99.90;;;;;;5049775;28;20028;-49
2022/05/25 02:04:50;;;;;;;7.15;6.15;;;9.90;99.90;;;;;;5050188;28;20072;-45
2022/05/25 02:07:25;;;;;;;7.38;6.60;;;9.90;99.90;;;;;;5049887;28;20569;-47
2022/05/25 02:10:02;;;;;;;6.82;6.05;;;9.90;99.90;;;;;;5049585;28;20021;-47
2022/05/25 02:12:27;;;;;;;7.20;6.50;;;9.90;99.90;;;;;;5049457;28;20035;-46
2022/05/25 02:14:57;;;;;;;6.50;5.80;;;9.90;99.90;;;;;;5049820;28;20033;-45
2022/05/25 02:17:55;;;;;;;7.00;6.30;;;9.90;99.90;;;;;;5049919;28;20021;-47
2022/05/25 02:20:33;;;;;;;7.80;7.00;;;9.90;99.90;;;;;;5049842;28;20054;-45
2022/05/25 02:23:06;;;;;;;7.40;6.68;;;9.90;99.90;;;;;;5049778;28;20029;-45
2022/05/25 02:26:08;;;;;;;7.65;5.97;;;9.90;99.90;;;;;;5049632;28;20506;-45
2022/05/25 02:28:42;;;;;;;6.97;6.25;;;9.90;99.90;;;;;;5049572;28;20025;-45
2022/05/25 02:31:12;;;;;;;7.55;6.85;;;9.90;99.90;;;;;;5052174;28;20109;-48
2022/05/25 02:33:45;;;;;;;9.25;7.85;;;9.90;99.90;;;;;;5053364;28;20159;-44
2022/05/25 02:36:12;;;;;;;8.85;7.95;;;10.00;99.90;;;;;;5053178;28;20053;-45
2022/05/25 02:38:39;;;;;;;8.13;7.32;;;10.00;99.90;;;;;;5052900;28;20170;-46
2022/05/25 02:41:09;;;;;;;8.43;7.57;;;10.00;99.90;;;;;;5053129;28;20035;-48
2022/05/25 02:43:36;;;;;;;8.60;7.70;;;10.10;99.90;;;;;;5053106;28;20052;-47
2022/05/25 02:46:03;;;;;;;9.30;7.72;;;10.10;99.90;;;;;;5062037;28;20104;-44
2022/05/25 02:48:28;;;;;;;9.40;8.02;;;10.10;99.90;;;;;;5084793;28;20063;-46
2022/05/25 02:50:54;;;;;;;8.98;7.55;;;10.10;99.90;;;;;;5093206;28;20056;-47
2022/05/25 02:53:20;;;;;;;9.05;8.07;;;10.10;99.90;;;;;;5092992;28;20063;-45
2022/05/25 02:55:46;;;;;;;8.50;7.20;;;10.10;99.90;;;;;;5093346;28;20024;-46
2022/05/25 02:58:11;;;;;;;8.20;7.40;;;10.10;99.90;;;;;;5093301;28;20032;-46
2022/05/25 03:00:37;;;;;;;7.78;6.57;;;10.10;99.90;;;;;;5093203;28;20107;-45
2022/05/25 03:03:02;;;;;;;7.18;6.45;;;10.10;99.90;;;;;;5092880;28;20056;-46
2022/05/25 03:05:28;;;;;;;10.63;7.65;;;10.10;99.90;;;;;;5092982;28;20032;-47
2022/05/25 03:07:54;;;;;;;8.38;7.53;;;10.10;99.90;;;;;;5092730;28;20098;-47
2022/05/25 03:10:20;;;;;;;9.00;7.85;;;10.10;99.90;;;;;;5092930;28;20028;-45
2022/05/25 03:12:45;;;;;;;12.07;8.43;;;10.10;99.90;;;;;;5092540;28;20031;-45
2022/05/25 03:15:11;;;;;;;8.32;7.32;;;10.10;99.90;;;;;;5092819;28;20160;-48
2022/05/25 03:17:37;;;;;;;7.85;7.13;;;10.10;99.90;;;;;;5092728;28;20060;-46
2022/05/25 03:20:03;;;;;;;8.32;7.60;;;10.10;99.90;;;;;;5092413;28;20430;-45
2022/05/25 03:22:28;;;;;;;7.57;6.85;;;10.10;99.90;;;;;;5092363;28;20524;-49
2022/05/25 03:24:54;;;;;;;8.40;7.60;;;10.10;99.90;;;;;;5092466;28;20070;-47
2022/05/25 03:27:19;;;;;;;9.38;8.48;;;10.10;99.90;;;;;;5092534;28;20032;-49
2022/05/25 03:29:45;;;;;;;8.55;7.75;;;10.10;99.90;;;;;;5092325;28;20055;-47
2022/05/25 03:32:11;;;;;;;9.00;7.55;;;10.10;99.90;;;;;;5092213;28;20024;-49
2022/05/25 03:34:37;;;;;;;8.45;7.65;;;10.10;99.90;;;;;;5092588;28;20036;-49
2022/05/25 03:37:03;;;;;;;7.53;6.72;;;10.10;99.90;;;;;;5092632;28;20024;-43
2022/05/25 03:39:29;;;;;;;8.55;7.25;;;10.10;99.90;;;;;;5092182;28;20067;-47
2022/05/25 03:42:01;;;;;;;8.40;7.35;;;10.10;99.90;;;;;;5091631;28;20028;-47
2022/05/25 03:44:28;;;;;;;8.85;7.22;;;10.10;99.90;;;;;;5091813;28;20028;-48
2022/05/25 03:46:54;;;;;;;8.40;7.38;;;10.00;99.90;;;;;;5092474;28;20020;-47
2022/05/25 03:49:19;;;;;;;7.40;6.70;;;10.00;99.90;;;;;;5092341;28;20401;-50
2022/05/25 03:51:46;;;;;;;8.40;7.60;;;10.00;99.90;;;;;;5091678;28;20464;-47
2022/05/25 03:54:12;;;;;;;8.07;6.93;;;9.90;99.90;;;;;;5090646;28;20367;-46
2022/05/25 03:56:38;;;;;;;6.63;5.97;;;9.90;99.90;;;;;;5090666;28;20406;-44
2022/05/25 03:59:04;;;;;;;6.82;6.22;;;9.90;99.90;;;;;;5092171;28;20024;-48
2022/05/25 04:01:31;;;;;;;7.63;6.47;;;9.90;99.90;;;;;;5091546;28;20024;-49
2022/05/25 04:03:58;;;;;;;7.70;7.07;;;9.90;99.90;;;;;;5091608;28;20035;-48
2022/05/25 04:06:24;;;;;;;7.85;6.68;;;9.90;99.90;;;;;;5090296;28;20024;-46
2022/05/25 04:08:50;;;;;;;7.40;6.65;;;9.90;99.90;;;;;;5091651;28;20388;-44
2022/05/25 04:11:15;;;;;;;7.50;6.60;;;9.90;99.90;;;;;;5091186;28;20038;-47
2022/05/25 04:13:41;;;;;;;7.18;6.55;;;9.90;99.90;;;;;;5091807;28;20107;-44
2022/05/25 04:16:09;;;;;;;7.45;6.75;;;9.90;99.90;;;;;;5091940;28;20371;-44
2022/05/25 04:18:34;;;;;;;7.70;7.00;;;9.90;99.90;;;;;;5091591;28;20020;-47
2022/05/25 04:21:00;;;;;;;8.50;7.60;;;9.90;99.90;;;;;;5091285;28;20055;-49
2022/05/25 04:23:27;;;;;;;8.27;7.40;;;9.90;99.90;;;;;;5091281;28;20418;-45
2022/05/25 04:25:54;;;;;;;7.32;6.63;;;9.90;99.90;;;;;;5091417;28;20046;-44
2022/05/25 04:28:20;;;;;;;9.02;8.13;;;9.90;99.90;;;;;;5091403;28;20036;-45
2022/05/25 04:30:47;;;;;;;8.15;7.35;;;9.90;99.90;;;;;;5091158;28;20032;-47
2022/05/25 04:33:13;;;;;;;9.05;7.95;;;9.90;99.90;;;;;;5091002;28;20027;-46
2022/05/25 04:35:40;;;;;;;8.43;7.72;;;9.90;99.90;;;;;;5089691;28;20382;-46
2022/05/25 04:38:06;;;;;;;8.80;7.90;;;9.90;99.90;;;;;;5090666;28;20024;-47
2022/05/25 04:40:37;;;;;;;8.85;7.75;;;10.00;99.90;;;;;;5091233;28;20555;-46
2022/05/25 04:43:09;;;;;;;9.88;8.68;;;10.00;99.90;;;;;;5090771;28;20394;-45
2022/05/25 04:45:37;;;;;;;8.25;7.45;;;10.00;99.90;;;;;;5090697;28;20016;-45
2022/05/25 04:48:03;;;;;;;7.75;6.95;;;10.10;99.90;;;;;;5090861;28;20070;-45
2022/05/25 04:50:35;;;;;;;9.82;7.90;;;10.10;99.90;;;;;;5090617;28;20558;-46
2022/05/25 04:53:02;;;;;;;9.68;7.95;;;10.10;99.90;;;;;;5089941;28;20528;-45
2022/05/25 04:58:24;;;;;;;11.18;8.68;;;10.20;99.90;;;;;;5090822;28;20027;-45
2022/05/25 05:00:50;;;;;;;10.90;8.27;;;10.30;99.90;;;;;;5090761;28;20051;-45
2022/05/25 05:03:17;;;;;;;8.93;8.07;;;10.30;99.90;;;;;;5090456;28;20515;-45
2022/05/25 05:05:43;;;;;;;13.07;7.88;;;10.40;99.90;;;;;;5090686;28;20052;-49
2022/05/25 05:08:08;;;;;;;9.63;8.73;;;10.40;99.90;;;;;;5090548;28;20044;-45
2022/05/25 05:10:35;;;;;;;10.27;9.27;;;10.40;99.90;;;;;;5090556;28;20446;-47
2022/05/25 05:13:04;;;;;;;8.27;7.45;;;10.50;99.90;;;;;;5090244;28;20024;-46
2022/05/25 05:15:35;;;;;;;10.32;9.30;;;10.50;99.90;;;;;;5090451;28;20035;-46
2022/05/25 05:18:01;;;;;;;8.45;7.65;;;10.50;99.90;;;;;;5090357;28;20028;-45
2022/05/25 05:20:27;;;;;;;8.43;7.35;;;10.60;99.90;;;;;;5090148;28;20024;-46
2022/05/25 05:22:52;;;;;;;9.10;8.15;;;10.60;99.90;;;;;;5090063;28;20024;-46
2022/05/25 05:25:18;;;;;;;10.63;8.52;;;10.70;99.90;;;;;;5089967;28;20432;-45
2022/05/25 05:27:45;;;;;;;9.27;8.30;;;10.70;99.90;;;;;;5088878;28;20028;-47
2022/05/25 05:30:14;;;;;;;8.65;7.70;;;10.80;99.90;;;;;;5090332;28;20506;-45
2022/05/25 05:32:39;;;;;;;8.90;8.05;;;10.80;99.90;;;;;;5090392;28;20036;-45
2022/05/25 05:35:05;;;;;;;8.45;7.65;;;10.90;99.90;;;;;;5090215;28;20085;-45
2022/05/25 05:37:40;;;;;;;8.27;7.47;;;11.00;99.90;;;;;;5090016;28;20028;-44
2022/05/25 05:40:08;;;;;;;10.45;8.40;;;11.10;99.90;;;;;;5089970;28;20119;-44
2022/05/25 05:42:38;;;;;;;6.85;6.13;;;11.20;99.90;;;;;;5089785;28;20115;-46
2022/05/25 05:45:17;;;;;;;10.45;6.05;;;11.30;99.90;;;;;;5089950;28;20127;-44
2022/05/25 05:48:01;;;;;;;9.27;7.10;;;11.40;99.90;;;;;;5090039;28;20032;-46
2022/05/25 05:50:29;;;;;;;7.40;6.68;;;11.60;99.90;;;;;;5089968;28;20026;-44
2022/05/25 05:52:56;;;;;;;8.77;7.00;;;11.80;99.90;;;;;;5089912;28;20024;-43
2022/05/25 05:55:21;;;;;;;9.68;6.68;;;12.00;99.90;;;;;;5090027;28;20532;-43
2022/05/25 05:57:48;;;;;;;6.63;5.88;;;12.20;99.90;;;;;;5089936;28;20028;-44
2022/05/25 06:00:15;;;;;;;6.50;5.97;;;12.30;99.90;;;;;;5089976;28;20511;-45
2022/05/25 06:02:41;;;;;;;6.82;5.97;;;12.40;99.90;;;;;;5089606;28;20051;-44
2022/05/25 06:05:07;;;;;;;6.80;6.20;;;12.60;99.90;;;;;;5093262;28;20640;-47
2022/05/25 06:07:33;;;;;;;6.85;6.15;;;12.80;99.90;;;;;;5094348;28;20600;-44
2022/05/25 06:09:58;;;;;;;5.72;5.13;;;13.00;99.90;;;;;;5094229;28;20095;-46
2022/05/25 06:12:24;;;;;;;5.60;5.05;;;13.20;99.90;;;;;;5093825;28;20501;-46
2022/05/25 06:14:50;;;;;;;5.85;5.25;;;13.30;99.90;;;;;;5093870;28;20401;-44
2022/05/25 06:19:59;;;;;;;7.00;4.70;;;13.70;99.90;;;;;;5093741;28;20043;-47
2022/05/25 06:22:26;;;;;;;4.85;4.38;;;13.90;99.90;;;;;;5092168;28;20032;-45
2022/05/25 06:24:52;;;;;;;4.18;3.70;;;14.10;99.90;;;;;;5093600;28;20047;-48
2022/05/25 06:27:20;;;;;;;4.25;3.60;;;14.20;99.90;;;;;;5093741;28;20498;-45
2022/05/25 06:29:47;;;;;;;3.90;3.50;;;14.30;99.90;;;;;;5093546;28;20102;-45
2022/05/25 06:32:15;;;;;;;4.18;3.75;;;14.50;99.90;;;;;;5093234;28;20028;-48
2022/05/25 06:34:42;;;;;;;3.83;3.53;;;14.70;99.90;;;;;;5093561;28;20031;-44
2022/05/25 06:37:13;;;;;;;5.97;3.95;;;14.90;99.90;;;;;;5093537;28;20443;-46
2022/05/25 06:39:39;;;;;;;4.35;3.95;;;15.00;99.90;;;;;;5093257;28;20182;-46
2022/05/25 06:42:06;;;;;;;4.40;4.00;;;15.10;99.90;;;;;;5093150;28;20028;-45
2022/05/25 06:44:32;;;;;;;3.72;3.30;;;15.20;99.90;;;;;;5093217;28;20055;-45
2022/05/25 06:46:58;;;;;;;3.92;3.40;;;15.40;99.90;;;;;;5093733;28;20093;-47
2022/05/25 06:49:23;;;;;;;4.30;3.90;;;15.60;99.90;;;;;;5093512;28;20024;-46
2022/05/25 06:51:49;;;;;;;4.80;4.30;;;15.70;99.90;;;;;;5092698;28;20028;-44
2022/05/25 06:54:17;;;;;;;4.68;3.92;;;15.70;99.90;;;;;;5093354;28;20028;-46
2022/05/25 06:56:43;;;;;;;4.38;3.70;;;15.60;99.90;;;;;;5093422;28;20408;-45
2022/05/25 06:59:09;;;;;;;4.70;4.30;;;15.70;99.90;;;;;;5093252;28;20028;-45
2022/05/25 07:01:36;;;;;;;4.32;3.92;;;15.70;99.90;;;;;;5092628;28;20043;-49
2022/05/25 07:04:02;;;;;;;6.13;4.38;;;15.90;99.90;;;;;;5092950;28;20077;-45
2022/05/25 07:06:28;;;;;;;4.57;3.95;;;16.20;99.90;;;;;;5093134;28;20038;-45
2022/05/25 07:08:54;;;;;;;7.03;4.05;;;16.20;99.90;;;;;;5092938;28;20020;-47
2022/05/25 07:11:21;;;;;;;3.97;3.38;;;16.30;99.90;;;;;;5092527;28;20067;-44
2022/05/25 07:13:47;;;;;;;3.58;3.28;;;16.50;99.90;;;;;;5092795;28;20060;-47
2022/05/25 07:16:15;;;;;;;3.95;3.60;;;16.70;99.90;;;;;;5091890;28;20051;-46
2022/05/25 07:18:42;;;;;;;3.50;3.20;;;16.90;99.90;;;;;;5092372;28;20109;-45
2022/05/25 07:21:17;;;;;;;4.22;3.30;;;16.90;99.90;;;;;;5091757;28;20026;-48
2022/05/25 07:23:44;;;;;;;4.40;2.70;;;16.80;99.90;;;;;;5092548;28;20099;-50
2022/05/25 07:26:10;;;;;;;3.38;2.83;;;16.80;99.90;;;;;;5092706;28;20358;-46
2022/05/25 07:28:37;;;;;;;3.67;3.25;;;16.70;99.90;;;;;;5091233;28;20024;-46
2022/05/25 07:31:09;;;;;;;4.00;2.80;;;16.60;99.90;;;;;;5092363;28;20106;-47
2022/05/25 07:33:38;;;;;;;6.53;3.10;;;16.70;99.90;;;;;;5092421;28;20032;-46
2022/05/25 07:36:04;;;;;;;3.08;2.75;;;16.90;99.90;;;;;;5090902;28;20093;-48
2022/05/25 07:38:30;;;;;;;5.03;3.60;;;17.20;99.90;;;;;;5091957;28;20038;-47
2022/05/25 07:40:57;;;;;;;3.47;2.78;;;17.50;99.90;;;;;;5092232;28;20024;-46
2022/05/25 07:43:27;;;;;;;3.50;2.33;;;17.80;99.90;;;;;;5091935;28;20024;-50
2022/05/25 07:45:53;;;;;;;3.88;2.45;;;18.20;99.90;;;;;;5091923;28;20021;-47
2022/05/25 07:48:19;;;;;;;3.65;2.80;;;18.40;99.90;;;;;;5091727;28;20016;-45
2022/05/25 07:50:44;;;;;;;3.75;2.40;;;18.30;99.90;;;;;;5091716;28;20081;-46
2022/05/25 07:55:59;;;;;;;2.25;1.85;;;18.50;99.90;;;;;;5092283;28;20035;-45
2022/05/25 07:58:25;;;;;;;2.95;2.20;;;18.50;99.90;;;;;;5091684;28;20460;-51
2022/05/25 08:00:53;;;;;;;2.28;2.10;;;18.90;99.90;;;;;;5091611;28;20034;-51
2022/05/25 08:06:04;;;;;;;3.05;2.40;;;19.10;99.90;;;;;;5092447;28;20094;-48
2022/05/25 08:08:30;;;;;;;2.67;2.15;;;19.20;99.90;;;;;;5091794;28;20031;-49
2022/05/25 08:11:03;;;;;;;2.22;1.92;;;19.30;99.90;;;;;;5090390;28;20389;-47
2022/05/25 08:13:30;;;;;;;2.22;2.00;;;19.40;99.90;;;;;;5091655;28;20519;-45
2022/05/25 08:15:56;;;;;;;2.05;1.85;;;19.20;99.90;;;;;;5090750;28;20016;-45
2022/05/25 08:18:22;;;;;;;2.40;2.20;;;18.90;98.80;;;;;;5091352;28;20470;-46
2022/05/25 08:20:48;;;;;;;3.72;2.40;;;18.60;99.90;;;;;;5091219;28;20501;-47
2022/05/25 08:23:15;;;;;;;3.55;2.15;;;18.60;99.90;;;;;;5089696;28;20021;-48
2022/05/25 08:25:42;;;;;;;2.70;2.50;;;18.70;99.90;;;;;;5091011;28;20024;-46
2022/05/25 08:28:07;;;;;;;2.53;1.95;;;18.90;99.90;;;;;;5089940;28;20024;-50
2022/05/25 08:30:35;;;;;;;2.58;2.33;;;18.90;99.90;;;;;;5091110;28;20555;-50
2022/05/25 08:33:01;;;;;;;3.80;2.58;;;18.80;99.10;;;;;;5090801;28;20028;-47
2022/05/25 08:35:28;;;;;;;3.05;2.22;;;18.50;99.90;;;;;;5091061;28;20444;-46
2022/05/25 08:37:54;;;;;;;3.47;1.88;;;18.30;99.90;;;;;;5090756;28;20489;-46
2022/05/25 08:40:22;;;;;;;3.55;2.45;;;18.30;99.90;;;;;;5091182;28;20717;-45
2022/05/25 08:42:58;;;;;;;2.53;1.98;;;18.20;99.90;;;;;;5090747;28;20112;-49
2022/05/25 08:45:31;;;;;;;5.95;2.10;;;18.50;99.90;;;;;;5090913;28;20720;-45
2022/05/25 08:47:59;;;;;;;3.38;2.58;;;18.80;99.90;;;;;;5090858;28;20145;-49
2022/05/25 08:50:25;;;;;;;2.38;2.15;;;19.00;99.90;;;;;;5090709;28;20020;-46
2022/05/25 08:52:56;;;;;;;2.40;2.20;;;19.30;99.90;;;;;;5090497;28;20020;-46
2022/05/25 08:55:58;;;;;;;3.13;2.10;;;19.10;98.50;;;;;;5090901;28;20543;-46
2022/05/25 08:58:35;;;;;;;2.50;2.30;;;18.90;99.90;;;;;;5090592;28;20039;-47
2022/05/25 09:01:06;;;;;;;2.65;2.42;;;18.90;99.90;;;;;;5090670;28;20035;-44
2022/05/25 09:03:44;;;;;;;3.25;1.92;;;19.20;99.90;;;;;;5090669;28;20039;-48
2022/05/25 09:06:33;;;;;;;2.75;2.38;;;19.10;99.90;;;;;;5090737;28;20028;-46
2022/05/25 09:09:23;;;;;;;2.30;2.08;;;19.10;99.20;;;;;;5090256;28;20032;-45
2022/05/25 09:12:02;;;;;;;1.80;1.70;;;19.00;99.00;;;;;;5090574;28;20024;-49
2022/05/25 09:14:44;;;;;;;2.63;1.90;;;19.10;98.90;;;;;;5090552;28;20517;-47
2022/05/25 09:17:20;;;;;;;2.92;2.13;;;19.30;99.90;;;;;;5090676;28;20030;-46
2022/05/25 09:19:47;;;;;;;6.85;2.10;;;19.20;99.90;;;;;;5090287;28;20024;-47
2022/05/25 09:22:19;;;;;;;2.50;1.60;;;19.10;97.60;;;;;;5090585;28;20703;-46
2022/05/25 09:24:47;;;;;;;2.67;1.85;;;18.90;97.40;;;;;;5090465;28;20456;-49
2022/05/25 09:27:15;;;;;;;2.33;2.08;;;19.00;98.90;;;;;;5090526;28;20023;-46
2022/05/25 09:29:41;;;;;;;2.67;2.40;;;18.90;99.90;;;;;;5088800;28;20051;-46
2022/05/25 09:32:27;;;;;;;2.00;1.90;;;18.90;99.90;;;;;;5090004;28;20052;-45
2022/05/25 09:34:55;;;;;;;1.67;1.13;;;18.80;99.60;;;;;;5090283;28;20012;-46
2022/05/25 09:37:44;;;;;;;1.95;1.30;;;18.60;99.10;;;;;;5090253;28;20269;-46
2022/05/25 09:40:20;;;;;;;2.17;1.50;;;18.60;99.90;;;;;;5089729;28;20126;-45
2022/05/25 09:42:51;;;;;;;1.58;1.48;;;18.70;97.30;;;;;;5090151;28;20141;-46
2022/05/25 09:45:17;;;;;;;1.35;1.25;;;18.90;99.90;;;;;;5088765;28;20031;-47
2022/05/25 09:47:45;;;;;;;2.90;1.90;;;19.20;99.70;;;;;;5090108;28;20020;-46
2022/05/25 09:50:29;;;;;;;1.80;1.70;;;19.40;99.90;;;;;;5090013;28;20024;-45
2022/05/25 09:52:56;;;;;;;2.20;1.80;;;19.50;99.10;;;;;;5088439;28;20139;-54
2022/05/25 09:55:31;;;;;;;1.50;1.40;;;19.60;98.10;;;;;;5088885;28;20024;-44
2022/05/25 09:57:57;;;;;;;;;;;19.80;98.90;;;;;;5090833;28;20035;-48
2022/05/25 10:00:51;;;;;;;2.47;2.27;;;19.90;99.90;;;;;;5090369;28;19904;-47
2022/05/25 10:03:37;;;;;;;2.83;2.10;;;19.90;97.80;;;;;;5089824;28;20070;-49
2022/05/25 10:06:20;;;;;;;2.25;2.15;;;19.60;91.90;;;;;;5089989;28;20044;-49
2022/05/25 10:08:50;;;;;;;1.40;1.30;;;19.50;96.50;;;;;;5089984;28;20077;-49
2022/05/25 10:11:31;;;;;;;2.20;1.98;;;19.60;96.70;;;;;;5089455;28;20485;-48
2022/05/25 10:14:13;;;;;;;2.28;2.03;;;19.40;94.50;;;;;;5088636;28;20089;-46
2022/05/25 10:16:39;;;;;;;2.15;2.05;;;19.40;94.90;;;;;;5089889;28;20032;-46
2022/05/25 10:19:12;;;;;;;1.63;1.40;;;19.30;97.60;;;;;;5089789;28;20039;-45
2022/05/25 10:21:38;;;;;;;2.13;1.77;;;19.50;98.70;;;;;;5089503;28;20028;-46
2022/05/25 10:24:15;;;;;;;1.80;1.70;;;19.50;95.80;;;;;;5090012;28;20078;-50
2022/05/25 10:26:47;;;;;;;3.47;1.60;;;19.50;99.40;;;;;;5089189;28;20401;-47
2022/05/25 10:36:45;;;;;;;1.75;1.65;;;19.70;96.90;;;;;;5089674;28;20034;-49
2022/05/25 10:38:28;;;;;;;1.83;1.45;;;20.10;95.70;;;;;;5089919;28;20181;-46
2022/05/25 10:41:37;;;;;;;1.40;1.30;;;19.80;94.50;;;;;;5089512;28;20055;-47
2022/05/25 10:43:49;;;;;;;1.60;1.50;;;19.70;92.00;;;;;;5089406;28;20036;-50
2022/05/25 10:46:16;;;;;;;1.60;1.50;;;19.50;94.50;;;;;;5089501;28;20146;-48
2022/05/25 10:48:59;;;;;;;1.15;1.05;;;19.60;95.70;;;;;;5089619;28;20043;-46
2022/05/25 10:51:33;;;;;;;1.13;1.10;;;19.60;94.30;;;;;;5090978;28;20032;-49
2022/05/25 10:57:23;;;;;;;0.80;0.80;;;19.50;94.70;;;;;;5093489;28;20110;-46
2022/05/25 10:59:57;;;;;;;1.00;0.95;;;19.50;91.60;;;;;;5093021;28;20057;-47
2022/05/25 11:02:52;;;;;;;1.45;1.10;;;19.50;92.20;;;;;;5091380;28;20064;-47
2022/05/25 11:05:52;;;;;;;1.08;0.98;;;19.40;92.70;;;;;;5092992;28;20024;-46
2022/05/25 11:08:29;;;;;;;1.02;1.02;;;19.50;93.90;;;;;;5092927;28;20489;-46
2022/05/25 11:11:24;;;;;;;1.02;1.02;;;19.60;92.00;;;;;;5092856;28;20486;-47
2022/05/25 11:14:12;;;;;;;1.08;1.00;;;19.60;93.30;;;;;;5092857;28;20681;-46
2022/05/25 11:17:02;;;;;;;1.30;1.08;;;19.80;93.90;;;;;;5093099;28;20035;-44
2022/05/25 11:19:48;;;;;;;2.50;1.33;;;19.90;93.50;;;;;;5092615;28;20016;-44
2022/05/25 11:22:25;;;;;;;1.58;1.48;;;19.90;93.90;;;;;;5092743;28;20035;-47
2022/05/25 11:25:15;;;;;;;2.15;1.77;;;19.70;92.30;;;;;;5092539;28;20384;-46
2022/05/25 11:28:11;;;;;;;1.52;1.42;;;19.40;91.00;;;;;;5092298;28;20026;-45
2022/05/25 11:30:44;;;;;;;3.50;1.48;;;19.20;93.60;;;;;;5092545;28;20340;-45
2022/05/25 11:33:16;;;;;;;1.60;1.50;;;19.10;93.90;;;;;;5092318;28;20411;-47
2022/05/25 11:35:48;;;;;;;1.52;1.45;;;19.00;95.70;;;;;;5092327;28;20132;-49
2022/05/25 11:38:23;;;;;;;1.70;1.60;;;19.20;95.50;;;;;;5092143;28;20115;-47
2022/05/25 11:41:28;;;;;;;1.90;1.70;;;19.30;92.40;;;;;;5092462;28;20496;-51
2022/05/25 11:44:12;;;;;;;1.35;1.23;;;19.30;93.60;;;;;;5090573;28;20301;-46
2022/05/25 11:46:45;;;;;;;1.50;1.20;;;19.20;93.50;;;;;;5092217;28;20028;-45
2022/05/25 11:49:38;;;;;;;1.58;0.90;;;19.00;95.10;;;;;;5092228;28;20101;-45
2022/05/25 11:52:25;;;;;;;1.08;1.08;;;18.70;97.10;;;;;;5091905;28;20023;-49
2022/05/25 11:55:09;;;;;;;1.02;1.00;;;18.60;95.90;;;;;;5092210;28;20030;-53
2022/05/25 11:57:53;;;;;;;1.02;1.00;;;18.60;98.70;;;;;;5092336;28;20176;-45
2022/05/25 12:00:50;;;;;;;1.95;1.27;;;18.60;93.60;;;;;;5091859;28;20038;-49
2022/05/25 12:03:30;;;;;;;1.00;0.90;;;18.70;94.40;;;;;;5069932;28;20170;-48
2022/05/25 12:06:22;;;;;;;1.92;0.88;;;18.70;93.80;;;;;;5092028;28;20039;-45
2022/05/25 12:09:07;;;;;;;0.90;0.90;;;18.90;93.70;;;;;;5092059;28;20066;-50
2022/05/25 12:11:57;;;;;;;1.35;0.80;;;18.90;94.60;;;;;;5091356;28;20023;-48
2022/05/25 12:14:42;;;;;;;0.65;0.57;;;18.90;94.60;;;;;;5091663;28;20432;-47
2022/05/25 12:17:15;;;;;;;0.68;0.50;;;18.90;92.20;;;;;;5091601;28;20024;-47
2022/05/25 12:19:43;;;;;;;1.40;1.00;;;18.90;94.30;;;;;;5090836;28;20024;-46
2022/05/25 12:22:13;;;;;;;1.92;1.30;;;18.80;91.30;;;;;;5091091;28;20052;-47
2022/05/25 12:25:00;;;;;;;1.05;0.85;;;18.80;91.30;;;;;;5091205;28;20093;-51
2022/05/25 12:27:33;;;;;;;0.80;0.80;;;18.90;93.50;;;;;;5080329;28;20111;-48
2022/05/25 12:30:09;;;;;;;1.40;0.82;;;19.20;93.60;;;;;;5090947;28;20466;-49
2022/05/25 12:32:38;;;;;;;1.05;0.90;;;19.40;91.90;;;;;;5091246;28;20032;-49
2022/05/25 12:35:05;;;;;;;1.98;0.75;;;19.40;92.20;;;;;;5092003;28;20024;-50
2022/05/25 12:37:35;;;;;;;0.80;0.80;;;19.40;92.00;;;;;;5094038;28;20102;-46
2022/05/25 12:40:27;;;;;;;3.53;1.20;;;19.30;91.50;;;;;;5090775;28;20059;-49
2022/05/25 12:42:53;;;;;;;0.77;0.70;;;19.20;91.80;;;;;;5082001;28;20082;-51
2022/05/25 12:48:31;;;;;;;2.53;0.85;;;18.90;92.10;;;;;;5090652;28;20105;-46
2022/05/25 12:51:11;;;;;;;0.73;0.70;;;18.90;94.30;;;;;;5089485;28;20023;-44
2022/05/25 12:54:00;;;;;;;0.50;0.50;;;19.00;94.50;;;;;;5090619;28;20020;-48
2022/05/25 12:56:26;;;;;;;1.08;0.63;;;19.10;91.00;;;;;;5082771;28;20089;-45
2022/05/25 12:58:56;;;;;;;1.23;1.08;;;19.00;92.60;;;;;;5090796;28;20020;-49
2022/05/25 13:01:27;;;;;;;0.90;0.70;;;18.90;90.00;;;;;;5090357;28;20031;-46
2022/05/25 13:03:58;;;;;;;2.17;0.60;;;18.70;91.80;;;;;;5089308;28;20031;-50
2022/05/25 13:06:29;;;;;;;1.27;0.80;;;18.80;94.20;;;;;;5090765;28;20081;-50
2022/05/25 13:08:55;;;;;;;1.15;0.85;;;18.90;94.30;;;;;;5090476;28;20043;-48
2022/05/25 13:11:38;;;;;;;1.45;0.90;;;19.20;93.10;;;;;;5090372;28;20024;-49
2022/05/25 13:14:16;;;;;;;1.15;0.90;;;19.40;90.60;;;;;;5090048;28;20076;-48
2022/05/25 13:16:41;;;;;;;0.50;0.50;;;19.50;90.90;;;;;;5090401;28;20033;-47
2022/05/25 13:19:34;;;;;;;1.83;1.05;;;19.50;93.70;;;;;;5090214;28;20402;-50
2022/05/25 13:22:03;;;;;;;1.88;0.70;;;19.30;90.20;;;;;;5090192;28;20543;-50
2022/05/25 13:25:02;;;;;;;0.88;0.75;;;19.10;93.50;;;;;;5088886;28;20149;-52
2022/05/25 13:27:46;;;;;;;0.60;0.60;;;18.90;92.70;;;;;;5090370;28;20474;-48
2022/05/25 13:30:39;;;;;;;0.63;0.60;;;19.20;92.10;;;;;;5090360;28;20109;-52
2022/05/25 13:33:19;;;;;;;1.08;0.70;;;19.40;90.90;;;;;;5089979;28;20161;-49
2022/05/25 13:36:02;;;;;;;2.75;0.70;;;19.40;91.00;;;;;;5090190;28;20032;-51
2022/05/25 13:38:30;;;;;;;0.70;0.60;;;19.30;90.80;;;;;;5090039;28;20028;-46
2022/05/25 13:41:06;;;;;;;0.80;0.40;;;19.30;91.50;;;;;;5090226;28;20028;-50
2022/05/25 13:44:06;;;;;;;0.98;0.50;;;19.10;91.30;;;;;;5089950;28;20068;-47